AFL1285 UIII-UNKL
Flight info
| Callsign | AFL1285 |
|---|---|
| Flight time | N/A |
| Altitude | 30000 |
| Route | BOGRA4D BOGRA A815 TUTEK A91 SUKOR W176 TISBU/K0706F240 A311 LALOM LALOM2R |
| Aircraft | A320/M-SDE3FGHIRWY/LB1 |
Departure
| Time | 2026-05-09 10:39 |
|---|---|
| Airport | Irkutsk International Airport (UIII) |
Arrival
| Time | N/A |
|---|---|
| Airport | Krasnoyarsk International Airport (UNKL) |
| Time | Latitude | Longitude | Altitude | Speed | Heading |
|---|---|---|---|---|---|
| 2026-05-09 10:04 | 52.27119 | 104.36792 | 1585 ft | 0 kts | 199° |
| 2026-05-09 10:29 | 52.27094 | 104.36780 | 1585 ft | 12 kts | 188° |
| 2026-05-09 10:29 | 52.27048 | 104.36869 | 1585 ft | 10 kts | 112° |
| 2026-05-09 10:29 | 52.27025 | 104.36971 | 1585 ft | 9 kts | 109° |
| 2026-05-09 10:30 | 52.27001 | 104.37077 | 1585 ft | 10 kts | 110° |
| 2026-05-09 10:30 | 52.26988 | 104.37174 | 1585 ft | 8 kts | 91° |
| 2026-05-09 10:30 | 52.26998 | 104.37249 | 1585 ft | 6 kts | 85° |
| 2026-05-09 10:30 | 52.26993 | 104.37306 | 1585 ft | 4 kts | 108° |
| 2026-05-09 10:31 | 52.26963 | 104.37425 | 1586 ft | 16 kts | 113° |
| 2026-05-09 10:31 | 52.26924 | 104.37572 | 1589 ft | 12 kts | 114° |
| 2026-05-09 10:31 | 52.26895 | 104.37680 | 1591 ft | 8 kts | 113° |
| 2026-05-09 10:31 | 52.26867 | 104.37786 | 1597 ft | 12 kts | 113° |
| 2026-05-09 10:32 | 52.26816 | 104.37979 | 1600 ft | 29 kts | 114° |
| 2026-05-09 10:32 | 52.26737 | 104.38277 | 1614 ft | 28 kts | 114° |
| 2026-05-09 10:32 | 52.26660 | 104.38566 | 1616 ft | 28 kts | 113° |
| 2026-05-09 10:32 | 52.26589 | 104.38832 | 1630 ft | 22 kts | 113° |
| 2026-05-09 10:33 | 52.26539 | 104.39023 | 1642 ft | 15 kts | 113° |
| 2026-05-09 10:33 | 52.26503 | 104.39155 | 1644 ft | 12 kts | 113° |
| 2026-05-09 10:33 | 52.26453 | 104.39347 | 1643 ft | 37 kts | 113° |
| 2026-05-09 10:33 | 52.26343 | 104.39761 | 1650 ft | 39 kts | 113° |
| 2026-05-09 10:34 | 52.26238 | 104.40156 | 1668 ft | 37 kts | 113° |
| 2026-05-09 10:34 | 52.26057 | 104.40836 | 1678 ft | 31 kts | 114° |
| 2026-05-09 10:34 | 52.25997 | 104.41089 | 1680 ft | 16 kts | 96° |
| 2026-05-09 10:35 | 52.26039 | 104.41190 | 1690 ft | 4 kts | 25° |
| 2026-05-09 10:35 | 52.26041 | 104.41192 | 1690 ft | 0 kts | 25° |
| 2026-05-09 10:35 | 52.26049 | 104.41197 | 1696 ft | 6 kts | 23° |
| 2026-05-09 10:36 | 52.26098 | 104.41232 | 1696 ft | 0 kts | 24° |
| 2026-05-09 10:37 | 52.26135 | 104.41259 | 1697 ft | 16 kts | 24° |
| 2026-05-09 10:37 | 52.26249 | 104.41212 | 1689 ft | 22 kts | 296° |
| 2026-05-09 10:37 | 52.26267 | 104.41140 | 1694 ft | 0 kts | 298° |
| 2026-05-09 10:38 | 52.26268 | 104.41137 | 1692 ft | 0 kts | 298° |
| 2026-05-09 10:38 | 52.26285 | 104.41077 | 1687 ft | 28 kts | 293° |
| 2026-05-09 10:38 | 52.26499 | 104.40272 | 1674 ft | 122 kts | 293° |
| 2026-05-09 10:39 | 52.26947 | 104.38648 | 1836 ft | 175 kts | 296° |
| 2026-05-09 10:39 | 52.27466 | 104.36819 | 2721 ft | 184 kts | 294° |
| 2026-05-09 10:39 | 52.27827 | 104.35506 | 3256 ft | 193 kts | 295° |
| 2026-05-09 10:39 | 52.28396 | 104.33386 | 3606 ft | 214 kts | 295° |
| 2026-05-09 10:40 | 52.29005 | 104.31061 | 4043 ft | 233 kts | 295° |
| 2026-05-09 10:40 | 52.30442 | 104.28446 | 5038 ft | 243 kts | 330° |
| 2026-05-09 10:40 | 52.31492 | 104.27655 | 5472 ft | 256 kts | 338° |
| 2026-05-09 10:40 | 52.33228 | 104.26739 | 6276 ft | 265 kts | 343° |
| 2026-05-09 10:41 | 52.35024 | 104.25919 | 7207 ft | 269 kts | 343° |
| 2026-05-09 10:41 | 52.36832 | 104.25067 | 8152 ft | 272 kts | 341° |
| 2026-05-09 10:41 | 52.38651 | 104.24146 | 9155 ft | 274 kts | 340° |
| 2026-05-09 10:41 | 52.40454 | 104.23175 | 10095 ft | 277 kts | 339° |
| 2026-05-09 10:42 | 52.42356 | 104.22101 | 10481 ft | 300 kts | 339° |
| 2026-05-09 10:42 | 52.44391 | 104.20913 | 10993 ft | 315 kts | 338° |
| 2026-05-09 10:42 | 52.46478 | 104.19681 | 11781 ft | 320 kts | 339° |
| 2026-05-09 10:42 | 52.48569 | 104.18438 | 12625 ft | 324 kts | 338° |
| 2026-05-09 10:43 | 52.50699 | 104.17168 | 13464 ft | 327 kts | 339° |
| 2026-05-09 10:43 | 52.52849 | 104.15889 | 14215 ft | 330 kts | 339° |
| 2026-05-09 10:43 | 52.55020 | 104.14599 | 14935 ft | 333 kts | 339° |
| 2026-05-09 10:43 | 52.57183 | 104.13311 | 15628 ft | 336 kts | 339° |
| 2026-05-09 10:44 | 52.59399 | 104.11984 | 16336 ft | 340 kts | 339° |
| 2026-05-09 10:44 | 52.61634 | 104.10647 | 17056 ft | 343 kts | 339° |
| 2026-05-09 10:44 | 52.63893 | 104.09297 | 17754 ft | 346 kts | 339° |
| 2026-05-09 10:44 | 52.66171 | 104.07938 | 18415 ft | 350 kts | 339° |
| 2026-05-09 10:45 | 52.68472 | 104.06561 | 19041 ft | 352 kts | 339° |
| 2026-05-09 10:46 | 52.77725 | 104.01004 | 19883 ft | 354 kts | 339° |
| 2026-05-09 10:46 | 52.80048 | 103.99609 | 20051 ft | 357 kts | 339° |
| 2026-05-09 10:46 | 52.82388 | 103.98201 | 20695 ft | 358 kts | 339° |
| 2026-05-09 10:46 | 52.84738 | 103.96783 | 21317 ft | 361 kts | 339° |
| 2026-05-09 10:47 | 52.87074 | 103.95369 | 21900 ft | 363 kts | 339° |
| 2026-05-09 10:47 | 52.89460 | 103.93921 | 22499 ft | 365 kts | 339° |
| 2026-05-09 10:47 | 52.91859 | 103.92464 | 23079 ft | 368 kts | 339° |
| 2026-05-09 10:47 | 52.94271 | 103.91004 | 23633 ft | 370 kts | 339° |
| 2026-05-09 10:48 | 52.96696 | 103.89539 | 24139 ft | 371 kts | 339° |
| 2026-05-09 10:48 | 52.99094 | 103.88087 | 24624 ft | 372 kts | 339° |
| 2026-05-09 10:48 | 53.01539 | 103.86602 | 25084 ft | 374 kts | 339° |
| 2026-05-09 10:48 | 53.03993 | 103.85109 | 25544 ft | 376 kts | 339° |
| 2026-05-09 10:49 | 53.06456 | 103.83606 | 25984 ft | 378 kts | 339° |
| 2026-05-09 10:49 | 53.08930 | 103.82088 | 26434 ft | 379 kts | 339° |
| 2026-05-09 10:49 | 53.11382 | 103.80581 | 26876 ft | 381 kts | 339° |
| 2026-05-09 10:49 | 53.13877 | 103.79047 | 27312 ft | 383 kts | 339° |
| 2026-05-09 10:50 | 53.16368 | 103.77437 | 27748 ft | 385 kts | 336° |
| 2026-05-09 10:50 | 53.18832 | 103.75637 | 28173 ft | 387 kts | 335° |
| 2026-05-09 10:50 | 53.21273 | 103.73713 | 28595 ft | 389 kts | 334° |
| 2026-05-09 10:50 | 53.23711 | 103.71729 | 28998 ft | 391 kts | 333° |
| 2026-05-09 10:51 | 53.26170 | 103.69724 | 29416 ft | 393 kts | 334° |
| 2026-05-09 10:51 | 53.28641 | 103.67735 | 29798 ft | 395 kts | 334° |
| 2026-05-09 10:51 | 53.31083 | 103.65794 | 29884 ft | 388 kts | 334° |
| 2026-05-09 10:51 | 53.33468 | 103.63916 | 29891 ft | 372 kts | 334° |
| 2026-05-09 10:52 | 53.35788 | 103.62096 | 29891 ft | 366 kts | 334° |
| 2026-05-09 10:52 | 53.40381 | 103.58489 | 29892 ft | 363 kts | 334° |
| 2026-05-09 10:53 | 53.44960 | 103.54864 | 29891 ft | 363 kts | 334° |
| 2026-05-09 10:53 | 53.49415 | 103.50883 | 29895 ft | 362 kts | 323° |
| 2026-05-09 10:54 | 53.52759 | 103.44659 | 29890 ft | 364 kts | 303° |
| 2026-05-09 10:54 | 53.55280 | 103.37238 | 29886 ft | 364 kts | 302° |
| 2026-05-09 10:55 | 53.57766 | 103.29853 | 29883 ft | 364 kts | 302° |
| 2026-05-09 10:55 | 53.60266 | 103.22410 | 29880 ft | 364 kts | 302° |
| 2026-05-09 10:56 | 53.62752 | 103.14992 | 29884 ft | 364 kts | 302° |
| 2026-05-09 10:56 | 53.65242 | 103.07537 | 29873 ft | 365 kts | 302° |
| 2026-05-09 10:57 | 53.67734 | 103.00071 | 29875 ft | 365 kts | 301° |
| 2026-05-09 10:57 | 53.70203 | 102.92646 | 29879 ft | 365 kts | 301° |
| 2026-05-09 10:58 | 53.72677 | 102.85156 | 29877 ft | 365 kts | 301° |
| 2026-05-09 10:58 | 53.75131 | 102.77701 | 29882 ft | 365 kts | 301° |
| 2026-05-09 10:59 | 53.77602 | 102.70194 | 29882 ft | 365 kts | 301° |
| 2026-05-09 10:59 | 53.80058 | 102.62713 | 29868 ft | 365 kts | 301° |
| 2026-05-09 11:00 | 53.82521 | 102.55196 | 29872 ft | 365 kts | 301° |
| 2026-05-09 11:00 | 53.84982 | 102.47666 | 29894 ft | 365 kts | 301° |
| 2026-05-09 11:01 | 53.87422 | 102.40171 | 29894 ft | 364 kts | 301° |
| 2026-05-09 11:01 | 53.89867 | 102.32614 | 29893 ft | 364 kts | 300° |
| 2026-05-09 11:02 | 53.92284 | 102.25109 | 29885 ft | 364 kts | 300° |
| 2026-05-09 11:02 | 53.94719 | 102.17555 | 29890 ft | 364 kts | 300° |
| 2026-05-09 11:03 | 53.97132 | 102.10044 | 29881 ft | 364 kts | 300° |
| 2026-05-09 11:03 | 53.99553 | 102.02463 | 29882 ft | 364 kts | 300° |
| 2026-05-09 11:04 | 54.01951 | 101.94940 | 29883 ft | 364 kts | 300° |
| 2026-05-09 11:04 | 54.04380 | 101.87357 | 29888 ft | 363 kts | 300° |
| 2026-05-09 11:05 | 54.06792 | 101.79783 | 29889 ft | 364 kts | 300° |
| 2026-05-09 11:05 | 54.09182 | 101.72246 | 29890 ft | 363 kts | 300° |
| 2026-05-09 11:06 | 54.11590 | 101.64658 | 29886 ft | 363 kts | 300° |
| 2026-05-09 11:06 | 54.14032 | 101.56934 | 29908 ft | 381 kts | 299° |
| 2026-05-09 11:06 | 54.15293 | 101.52936 | 29903 ft | 392 kts | 299° |
| 2026-05-09 11:07 | 54.16601 | 101.48769 | 29901 ft | 403 kts | 299° |
| 2026-05-09 11:07 | 54.19308 | 101.40122 | 29904 ft | 421 kts | 299° |
| 2026-05-09 11:08 | 54.22125 | 101.31101 | 29934 ft | 437 kts | 299° |
| 2026-05-09 11:08 | 54.23552 | 101.26523 | 30037 ft | 441 kts | 299° |
| 2026-05-09 11:08 | 54.24953 | 101.22018 | 30455 ft | 415 kts | 299° |
| 2026-05-09 11:08 | 54.26275 | 101.17753 | 30523 ft | 400 kts | 299° |
| 2026-05-09 11:09 | 54.27573 | 101.13567 | 30172 ft | 394 kts | 299° |
| 2026-05-09 11:09 | 54.28856 | 101.09422 | 29903 ft | 393 kts | 299° |
| 2026-05-09 11:09 | 54.30125 | 101.05308 | 29899 ft | 386 kts | 298° |
| 2026-05-09 11:09 | 54.31334 | 101.01376 | 29903 ft | 369 kts | 298° |
| 2026-05-09 11:10 | 54.32515 | 100.97527 | 29902 ft | 362 kts | 299° |
| 2026-05-09 11:10 | 54.34840 | 100.89953 | 29913 ft | 358 kts | 298° |
| 2026-05-09 11:11 | 54.37157 | 100.82357 | 29911 ft | 358 kts | 298° |
| 2026-05-09 11:11 | 54.39461 | 100.74822 | 29912 ft | 358 kts | 298° |
| 2026-05-09 11:12 | 54.41754 | 100.67286 | 29909 ft | 352 kts | 298° |
| 2026-05-09 11:12 | 54.44015 | 100.59833 | 29909 ft | 350 kts | 298° |
| 2026-05-09 11:13 | 54.46250 | 100.52446 | 29902 ft | 350 kts | 298° |
| 2026-05-09 11:13 | 54.48493 | 100.45001 | 29903 ft | 350 kts | 298° |
| 2026-05-09 11:14 | 54.50729 | 100.37544 | 29905 ft | 350 kts | 298° |
| 2026-05-09 11:14 | 54.52943 | 100.30128 | 29905 ft | 350 kts | 298° |
| 2026-05-09 11:15 | 54.55176 | 100.22664 | 29901 ft | 350 kts | 298° |
| 2026-05-09 11:15 | 54.57385 | 100.15251 | 29903 ft | 350 kts | 298° |
| 2026-05-09 11:16 | 54.59600 | 100.07788 | 29938 ft | 349 kts | 298° |
| 2026-05-09 11:16 | 54.61802 | 100.00320 | 29933 ft | 348 kts | 298° |
| 2026-05-09 11:17 | 54.63999 | 99.92854 | 29933 ft | 350 kts | 298° |
| 2026-05-09 11:17 | 54.65092 | 99.89148 | 30360 ft | 351 kts | 298° |